createdAt,value
2023-01-09T00:02:31.247Z,10.59
2023-01-09T00:05:20.959Z,10.59
2023-01-09T00:07:55.146Z,10.64
2023-01-09T00:10:26.378Z,10.67
2023-01-09T00:12:57.672Z,10.68
2023-01-09T00:15:31.009Z,10.64
2023-01-09T00:18:03.272Z,10.73
2023-01-09T00:20:36.917Z,10.77
2023-01-09T00:23:21.059Z,10.84
2023-01-09T00:26:26.066Z,10.75
2023-01-09T00:29:27.710Z,10.79
2023-01-09T00:32:15.585Z,10.70
2023-01-09T00:35:09.522Z,10.79
2023-01-09T00:41:18.124Z,10.83
2023-01-09T00:43:54.280Z,10.88
2023-01-09T00:46:48.095Z,10.88
2023-01-09T00:49:38.071Z,10.83
2023-01-09T00:52:39.102Z,10.83
2023-01-09T00:55:23.468Z,10.82
2023-01-09T00:58:20.357Z,10.91
2023-01-09T01:00:48.745Z,10.82
2023-01-09T01:03:51.980Z,10.79
2023-01-09T01:06:57.318Z,10.79
2023-01-09T01:09:30.664Z,10.76
2023-01-09T01:12:02.420Z,10.83
2023-01-09T01:14:30.228Z,10.73
2023-01-09T01:17:06.974Z,10.69
2023-01-09T01:19:40.212Z,10.70
2023-01-09T01:22:11.066Z,10.76
2023-01-09T01:24:41.697Z,10.79
2023-01-09T01:27:14.348Z,10.89
2023-01-09T01:29:44.466Z,10.93
2023-01-09T01:32:14.412Z,10.92
2023-01-09T01:34:46.356Z,10.91
2023-01-09T01:37:17.424Z,10.86
2023-01-09T01:39:49.928Z,10.81
2023-01-09T01:42:20.602Z,10.76
2023-01-09T01:45:08.472Z,10.70
2023-01-09T01:47:49.233Z,10.62
2023-01-09T01:50:20.078Z,10.58
2023-01-09T01:52:51.783Z,10.62
2023-01-09T01:55:22.337Z,10.66
2023-01-09T01:57:51.072Z,10.65
2023-01-09T02:00:28.454Z,10.66
2023-01-09T02:02:55.725Z,10.52
2023-01-09T02:05:28.482Z,10.48
2023-01-09T02:08:04.934Z,10.51
2023-01-09T02:10:32.688Z,10.59
2023-01-09T02:15:46.774Z,10.60
2023-01-09T02:18:16.336Z,10.49
2023-01-09T02:20:57.705Z,10.51
2023-01-09T02:23:47.111Z,10.52
2023-01-09T02:26:35.117Z,10.57
2023-01-09T02:29:04.964Z,10.59
2023-01-09T02:31:38.843Z,10.61
2023-01-09T02:34:24.806Z,10.67
2023-01-09T02:37:13.803Z,10.68
2023-01-09T02:39:44.197Z,10.75
2023-01-09T02:42:16.538Z,10.84
2023-01-09T02:44:49.742Z,10.90
2023-01-09T02:47:19.625Z,10.97
2023-01-09T02:49:53.039Z,11.01
2023-01-09T02:52:50.033Z,10.98
2023-01-09T02:55:45.181Z,10.96
2023-01-09T03:01:05.574Z,10.88
2023-01-09T03:04:09.127Z,10.85
2023-01-09T03:06:45.372Z,10.85
2023-01-09T03:09:15.312Z,10.86
2023-01-09T03:11:47.145Z,10.92
2023-01-09T03:14:32.569Z,10.89
2023-01-09T03:17:03.513Z,10.89
2023-01-09T03:19:44.188Z,10.89
2023-01-09T03:22:19.023Z,10.88
2023-01-09T03:24:48.700Z,10.88
2023-01-09T03:27:33.259Z,10.83
2023-01-09T03:30:01.351Z,10.83
2023-01-09T03:32:29.031Z,10.83
2023-01-09T03:35:07.724Z,10.88
2023-01-09T03:37:41.744Z,10.89
2023-01-09T03:40:14.346Z,10.90
2023-01-09T03:42:54.355Z,10.91
2023-01-09T03:45:21.746Z,10.90
2023-01-09T03:47:48.946Z,10.92
2023-01-09T03:50:18.923Z,10.90
2023-01-09T03:52:50.274Z,10.93
2023-01-09T03:55:21.278Z,10.89
2023-01-09T03:57:56.418Z,10.87
2023-01-09T04:00:28.978Z,10.88
2023-01-09T04:03:04.103Z,10.88
2023-01-09T04:05:36.051Z,10.82
2023-01-09T04:11:00.769Z,10.82
2023-01-09T04:13:37.232Z,10.84
2023-01-09T04:16:35.956Z,10.83
2023-01-09T04:19:06.629Z,10.83
2023-01-09T04:21:39.584Z,10.83
2023-01-09T04:24:11.974Z,10.81
2023-01-09T04:27:03.772Z,10.80
2023-01-09T04:29:40.021Z,10.81
2023-01-09T04:34:53.628Z,10.67
2023-01-09T04:37:21.111Z,10.68
2023-01-09T04:39:57.371Z,10.74
2023-01-09T04:42:34.168Z,10.74
2023-01-09T04:45:01.670Z,10.71
2023-01-09T04:47:31.286Z,10.73
2023-01-09T04:50:01.891Z,10.71
2023-01-09T04:52:29.168Z,10.71
2023-01-09T04:54:58.755Z,10.72
2023-01-09T04:57:34.639Z,10.74
2023-01-09T05:00:05.276Z,10.72
2023-01-09T05:02:38.263Z,10.70
2023-01-09T05:05:06.509Z,10.59
2023-01-09T05:07:45.534Z,10.62
2023-01-09T05:10:29.669Z,10.59
2023-01-09T05:12:57.911Z,10.53
2023-01-09T05:15:28.500Z,10.45
2023-01-09T05:18:13.366Z,10.43
2023-01-09T05:20:43.716Z,10.39
2023-01-09T05:23:13.907Z,10.40
2023-01-09T05:25:44.929Z,10.47
2023-01-09T05:28:20.664Z,10.54
2023-01-09T05:30:50.459Z,10.56
2023-01-09T05:33:20.202Z,10.47
2023-01-09T05:35:49.097Z,10.38
2023-01-09T05:38:21.172Z,10.23
2023-01-09T05:40:48.372Z,10.08
2023-01-09T05:43:20.160Z,9.91
2023-01-09T05:48:49.550Z,9.61
2023-01-09T05:54:08.299Z,9.49
2023-01-09T05:56:35.304Z,9.57
2023-01-09T06:02:01.426Z,9.82
2023-01-09T06:04:37.674Z,10.00
2023-01-09T06:07:07.567Z,10.14
2023-01-09T06:10:06.542Z,10.23
2023-01-09T06:12:38.449Z,10.23
2023-01-09T06:15:10.205Z,10.22
2023-01-09T06:17:37.251Z,10.20
2023-01-09T06:20:12.259Z,10.19
2023-01-09T06:22:42.000Z,10.21
2023-01-09T06:25:12.248Z,10.24
2023-01-09T06:27:39.340Z,10.27
2023-01-09T06:30:06.741Z,10.27
2023-01-09T06:32:36.652Z,10.25
2023-01-09T06:35:26.759Z,10.23
2023-01-09T06:37:59.835Z,10.22
2023-01-09T06:40:31.576Z,10.21
2023-01-09T06:42:58.531Z,10.21
2023-01-09T06:45:50.763Z,10.24
2023-01-09T06:48:35.974Z,10.24
2023-01-09T06:51:30.117Z,10.26
2023-01-09T06:53:59.190Z,10.19
2023-01-09T06:56:26.591Z,10.18
2023-01-09T06:58:59.910Z,10.16
2023-01-09T07:01:30.112Z,10.19
2023-01-09T07:03:57.572Z,10.05
2023-01-09T07:06:27.815Z,10.02
2023-01-09T07:09:19.529Z,10.02
2023-01-09T07:11:50.604Z,10.00
2023-01-09T07:14:26.698Z,9.98
2023-01-09T07:16:56.991Z,10.00
2023-01-09T07:19:27.670Z,10.06
2023-01-09T07:22:01.532Z,10.04
2023-01-09T07:24:38.131Z,10.08
2023-01-09T07:27:08.152Z,10.08
2023-01-09T07:29:45.263Z,10.03
2023-01-09T07:32:15.427Z,10.02
2023-01-09T07:34:52.844Z,9.98
2023-01-09T07:37:33.036Z,10.01
2023-01-09T07:40:08.111Z,10.02
2023-01-09T07:43:06.777Z,10.03
2023-01-09T07:45:54.871Z,10.02
2023-01-09T07:48:29.883Z,10.02
2023-01-09T07:51:03.888Z,10.03
2023-01-09T07:53:54.838Z,9.99
2023-01-09T07:56:24.613Z,9.89
2023-01-09T07:59:36.860Z,9.85
2023-01-09T08:02:09.908Z,9.81
2023-01-09T08:04:46.763Z,9.82
2023-01-09T08:08:09.761Z,9.79
2023-01-09T08:10:42.245Z,9.84
2023-01-09T08:13:18.682Z,9.89
2023-01-09T08:15:55.136Z,10.00
2023-01-09T08:18:27.047Z,9.97
2023-01-09T08:20:54.395Z,10.02
2023-01-09T08:23:24.249Z,9.98
2023-01-09T08:25:52.544Z,10.00
2023-01-09T08:28:27.936Z,10.11
2023-01-09T08:30:55.054Z,10.26
2023-01-09T08:33:25.052Z,10.33
2023-01-09T08:35:54.321Z,10.46
2023-01-09T08:38:33.117Z,10.58
2023-01-09T08:41:22.729Z,10.51
2023-01-09T08:44:18.658Z,10.67
2023-01-09T08:47:04.817Z,10.69
2023-01-09T08:49:46.332Z,10.89
2023-01-09T08:52:22.758Z,10.88
2023-01-09T08:54:56.065Z,10.87
2023-01-09T08:57:52.582Z,10.67
2023-01-09T09:00:32.400Z,10.49
2023-01-09T09:03:26.233Z,10.44
2023-01-09T09:06:14.017Z,10.69
2023-01-09T09:11:48.028Z,11.19
2023-01-09T09:20:21.782Z,11.11
2023-01-09T09:22:55.389Z,11.11
2023-01-09T09:25:34.348Z,11.11
2023-01-09T09:31:11.701Z,11.61
2023-01-09T09:33:51.405Z,11.73
2023-01-09T09:36:41.076Z,11.77
2023-01-09T09:39:09.651Z,11.75
2023-01-09T09:42:13.691Z,11.67
2023-01-09T09:48:22.741Z,11.65
2023-01-09T09:51:01.667Z,11.72
2023-01-09T09:53:47.207Z,11.90
2023-01-09T09:56:40.740Z,11.92
2023-01-09T09:59:16.680Z,11.69
2023-01-09T10:01:47.878Z,11.75
2023-01-09T10:04:17.739Z,11.52
2023-01-09T10:06:46.165Z,11.62
2023-01-09T10:09:32.265Z,11.71
2023-01-09T10:12:30.524Z,11.62
2023-01-09T10:14:59.092Z,11.39
2023-01-09T10:17:53.207Z,11.37
2023-01-09T10:20:58.329Z,11.39
2023-01-09T10:23:48.006Z,11.46
2023-01-09T10:26:37.224Z,11.61
2023-01-09T10:29:07.562Z,11.67
2023-01-09T10:31:41.630Z,11.66
2023-01-09T10:34:30.503Z,11.62
2023-01-09T10:37:02.950Z,11.50
2023-01-09T10:40:24.970Z,11.42
2023-01-09T10:43:31.941Z,11.25
2023-01-09T10:46:03.615Z,11.15
2023-01-09T10:49:04.648Z,11.25
2023-01-09T10:51:54.774Z,11.28
2023-01-09T10:54:28.465Z,11.44
2023-01-09T10:57:05.060Z,11.49
2023-01-09T10:59:34.841Z,11.27
2023-01-09T11:02:07.669Z,11.29
2023-01-09T11:04:51.446Z,11.27
2023-01-09T11:07:45.700Z,11.65
2023-01-09T11:10:15.997Z,11.81
2023-01-09T11:12:48.763Z,11.70
2023-01-09T11:15:36.179Z,11.67
2023-01-09T11:19:13.634Z,11.61
2023-01-09T11:21:50.639Z,11.48
2023-01-09T11:24:18.002Z,11.35
2023-01-09T11:26:56.739Z,11.16
2023-01-09T11:29:47.031Z,11.21
2023-01-09T11:32:32.470Z,11.18
2023-01-09T11:35:08.290Z,11.17
2023-01-09T11:37:38.770Z,11.16
2023-01-09T11:40:06.496Z,11.26
2023-01-09T11:42:52.854Z,11.28
2023-01-09T11:45:30.364Z,11.39
2023-01-09T11:47:58.381Z,11.51
2023-01-09T11:50:43.192Z,11.56
2023-01-09T11:53:18.937Z,11.56
2023-01-09T11:55:56.865Z,11.55
2023-01-09T11:58:26.687Z,11.60
2023-01-09T12:01:30.251Z,11.68
2023-01-09T12:04:02.482Z,11.57
2023-01-09T12:06:37.146Z,11.56
2023-01-09T12:09:07.926Z,11.61
2023-01-09T12:11:46.859Z,11.60
2023-01-09T12:15:02.199Z,11.43
2023-01-09T12:17:48.862Z,11.27
2023-01-09T12:20:20.764Z,11.24
2023-01-09T12:22:51.746Z,11.17
2023-01-09T12:25:32.783Z,11.19
2023-01-09T12:28:19.070Z,11.24
2023-01-09T12:33:49.455Z,11.10
2023-01-09T12:36:47.438Z,11.11
2023-01-09T12:39:35.530Z,11.16
2023-01-09T12:42:21.307Z,11.40
2023-01-09T12:45:11.049Z,11.46
2023-01-09T12:47:58.637Z,11.39
2023-01-09T12:50:44.113Z,11.25
2023-01-09T12:53:25.778Z,11.06
2023-01-09T12:56:17.460Z,11.04
2023-01-09T12:59:21.271Z,11.08
2023-01-09T13:02:17.921Z,11.12
2023-01-09T13:05:27.924Z,11.12
2023-01-09T13:08:10.044Z,11.04
2023-01-09T13:10:49.896Z,11.14
2023-01-09T13:16:51.723Z,11.82
2023-01-09T13:19:40.351Z,12.07
2023-01-09T13:22:15.790Z,12.34
2023-01-09T13:25:06.275Z,12.53
2023-01-09T13:27:40.405Z,12.79
2023-01-09T13:30:38.289Z,12.99
2023-01-09T13:33:19.643Z,13.02
2023-01-09T13:35:50.263Z,13.11
2023-01-09T13:38:29.039Z,13.19
2023-01-09T13:41:34.226Z,13.20
2023-01-09T13:44:29.381Z,13.11
2023-01-09T13:46:58.297Z,12.99
2023-01-09T13:49:34.336Z,12.80
2023-01-09T13:52:13.753Z,12.56
2023-01-09T13:54:49.932Z,12.33
2023-01-09T13:57:36.669Z,12.26
2023-01-09T14:00:17.911Z,12.29
2023-01-09T14:03:04.927Z,12.38
2023-01-09T14:05:34.128Z,12.37
2023-01-09T14:08:07.509Z,12.26
2023-01-09T14:10:46.881Z,12.07
2023-01-09T14:13:56.133Z,11.94
2023-01-09T14:16:34.782Z,11.80
2023-01-09T14:19:36.986Z,11.64
2023-01-09T14:22:08.591Z,11.46
2023-01-09T14:24:39.967Z,11.35
2023-01-09T14:27:27.628Z,11.30
2023-01-09T14:30:15.822Z,11.28
2023-01-09T14:33:10.957Z,11.32
2023-01-09T14:35:58.154Z,11.38
2023-01-09T14:38:31.498Z,11.35
2023-01-09T14:41:14.734Z,11.31
2023-01-09T14:43:46.343Z,11.34
2023-01-09T14:46:25.955Z,11.48
2023-01-09T14:48:59.508Z,11.44
2023-01-09T14:51:35.212Z,11.47
2023-01-09T14:54:07.180Z,11.45
2023-01-09T14:56:43.373Z,11.36
2023-01-09T14:59:12.750Z,11.32
2023-01-09T15:01:48.703Z,11.28
2023-01-09T15:04:31.062Z,11.33
2023-01-09T15:07:12.977Z,11.29
2023-01-09T15:12:50.876Z,11.22
2023-01-09T15:15:35.472Z,11.08
2023-01-09T15:18:06.195Z,10.98
2023-01-09T15:20:43.834Z,10.81
2023-01-09T15:23:23.169Z,10.75
2023-01-09T15:25:50.829Z,10.74
2023-01-09T15:28:31.055Z,10.70
2023-01-09T15:31:17.022Z,10.66
2023-01-09T15:34:07.089Z,10.49
2023-01-09T15:36:42.381Z,10.50
2023-01-09T15:39:27.364Z,10.54
2023-01-09T15:45:05.982Z,10.68
2023-01-09T15:47:36.851Z,10.66
2023-01-09T15:50:50.289Z,10.69
2023-01-09T15:53:38.432Z,10.66
2023-01-09T15:56:25.468Z,10.54
2023-01-09T15:59:06.955Z,10.42
2023-01-09T16:01:37.487Z,10.33
2023-01-09T16:04:06.397Z,10.27
2023-01-09T16:06:45.786Z,10.15
2023-01-09T16:09:17.727Z,10.03
2023-01-09T16:11:55.881Z,9.95
2023-01-09T16:14:35.373Z,9.84
2023-01-09T16:17:08.815Z,9.77
2023-01-09T16:19:49.332Z,9.74
2023-01-09T16:22:26.952Z,9.81
2023-01-09T16:25:02.881Z,9.81
2023-01-09T16:27:45.694Z,9.83
2023-01-09T16:33:28.381Z,9.90
2023-01-09T16:36:06.321Z,9.96
2023-01-09T16:38:49.226Z,10.00
2023-01-09T16:41:41.363Z,9.98
2023-01-09T16:44:30.426Z,9.88
2023-01-09T16:47:07.226Z,9.90
2023-01-09T16:49:43.245Z,9.98
2023-01-09T16:52:21.473Z,10.00
2023-01-09T16:55:05.324Z,9.93
2023-01-09T16:57:35.982Z,9.99
2023-01-09T17:00:13.865Z,10.01
2023-01-09T17:03:08.660Z,9.99
2023-01-09T17:05:44.583Z,9.95
2023-01-09T17:08:25.208Z,9.95
2023-01-09T17:10:54.430Z,10.01
2023-01-09T17:13:23.210Z,10.08
2023-01-09T17:15:50.345Z,10.05
2023-01-09T17:18:23.175Z,9.98
2023-01-09T17:20:51.259Z,9.88
2023-01-09T17:23:18.100Z,9.75
2023-01-09T17:26:03.292Z,9.67
2023-01-09T17:28:32.712Z,9.61
2023-01-09T17:31:04.185Z,9.60
2023-01-09T17:33:30.929Z,9.51
2023-01-09T17:35:57.646Z,9.53
2023-01-09T17:38:24.238Z,9.58
2023-01-09T17:40:50.933Z,9.59
2023-01-09T17:43:19.090Z,9.54
2023-01-09T17:45:45.866Z,9.53
2023-01-09T17:48:20.209Z,9.51
2023-01-09T17:50:47.881Z,9.49
2023-01-09T17:53:14.795Z,9.44
2023-01-09T17:55:41.931Z,9.45
2023-01-09T17:58:19.107Z,9.50
2023-01-09T18:00:47.918Z,9.54
2023-01-09T18:03:14.897Z,9.61
2023-01-09T18:05:41.537Z,9.62
2023-01-09T18:08:09.939Z,9.62
2023-01-09T18:10:37.611Z,9.55
2023-01-09T18:13:04.477Z,9.58
2023-01-09T18:15:31.473Z,9.59
2023-01-09T18:17:58.581Z,9.65
2023-01-09T18:20:26.112Z,9.67
2023-01-09T18:22:52.853Z,9.70
2023-01-09T18:25:19.550Z,9.72
2023-01-09T18:27:46.586Z,9.75
2023-01-09T18:30:13.366Z,9.72
2023-01-09T18:32:40.277Z,9.67
2023-01-09T18:35:08.781Z,9.66
2023-01-09T18:37:35.997Z,9.66
2023-01-09T18:40:02.654Z,9.63
2023-01-09T18:42:29.496Z,9.58
2023-01-09T18:44:56.363Z,9.59
2023-01-09T18:47:22.923Z,9.60
2023-01-09T18:49:49.565Z,9.59
2023-01-09T18:52:16.204Z,9.51
2023-01-09T18:54:43.369Z,9.44
2023-01-09T18:57:10.621Z,9.39
2023-01-09T18:59:37.395Z,9.32
2023-01-09T19:02:03.980Z,9.33
2023-01-09T19:04:34.156Z,9.39
2023-01-09T19:07:00.870Z,9.49
2023-01-09T19:09:27.749Z,9.55
2023-01-09T19:11:54.335Z,9.61
2023-01-09T19:14:20.876Z,9.63
2023-01-09T19:16:47.736Z,9.62
2023-01-09T19:19:14.304Z,9.64
2023-01-09T19:21:40.972Z,9.64
2023-01-09T19:24:07.678Z,9.65
2023-01-09T19:26:34.251Z,9.65
2023-01-09T19:29:00.937Z,9.62
2023-01-09T19:31:28.981Z,9.52
2023-01-09T19:33:56.580Z,9.49
2023-01-09T19:36:24.310Z,9.53
2023-01-09T19:38:55.393Z,9.49
2023-01-09T19:41:22.160Z,9.53
2023-01-09T19:43:48.875Z,9.55
2023-01-09T19:46:17.293Z,9.55
2023-01-09T19:48:44.778Z,9.62
2023-01-09T19:51:12.426Z,9.64
2023-01-09T19:53:39.220Z,9.67
2023-01-09T19:56:16.605Z,9.70
2023-01-09T19:58:47.531Z,9.77
2023-01-09T20:01:15.153Z,9.81
2023-01-09T20:03:45.396Z,9.83
2023-01-09T20:06:14.433Z,9.84
2023-01-09T20:08:41.851Z,9.87
2023-01-09T20:11:08.872Z,9.86
2023-01-09T20:13:35.737Z,9.85
2023-01-09T20:16:03.097Z,9.82
2023-01-09T20:18:33.242Z,9.82
2023-01-09T20:21:00.041Z,9.83
2023-01-09T20:23:32.346Z,9.85
2023-01-09T20:26:00.005Z,9.90
2023-01-09T20:28:27.384Z,9.93
2023-01-09T20:30:54.287Z,9.96
2023-01-09T20:33:21.136Z,10.01
2023-01-09T20:35:49.990Z,9.96
2023-01-09T20:38:17.149Z,9.96
2023-01-09T20:40:44.081Z,9.94
2023-01-09T20:43:12.583Z,9.89
2023-01-09T20:45:39.956Z,9.90
2023-01-09T20:48:14.005Z,9.92
2023-01-09T20:50:40.799Z,9.93
2023-01-09T20:53:08.007Z,9.94
2023-01-09T20:55:34.571Z,9.97
2023-01-09T20:58:01.311Z,10.00
2023-01-09T21:00:31.909Z,10.02
2023-01-09T21:02:59.275Z,10.04
2023-01-09T21:05:26.022Z,10.08
2023-01-09T21:07:52.500Z,10.12
2023-01-09T21:10:19.283Z,10.16
2023-01-09T21:12:45.886Z,10.18
2023-01-09T21:15:16.507Z,10.20
2023-01-09T21:17:43.621Z,10.16
2023-01-09T21:20:11.933Z,10.13
2023-01-09T21:22:39.277Z,10.09
2023-01-09T21:25:06.503Z,10.06
2023-01-09T21:27:38.209Z,10.01
2023-01-09T21:30:05.567Z,9.98
2023-01-09T21:32:34.976Z,9.95
2023-01-09T21:35:05.838Z,9.94
2023-01-09T21:37:34.865Z,9.87
2023-01-09T21:40:01.693Z,9.85
2023-01-09T21:42:46.922Z,9.82
2023-01-09T21:45:33.204Z,9.83
2023-01-09T21:48:02.407Z,9.87
2023-01-09T21:50:29.165Z,9.93
2023-01-09T21:52:55.837Z,9.96
2023-01-09T21:55:22.363Z,9.96
2023-01-09T21:57:49.008Z,9.89
2023-01-09T22:00:16.065Z,9.78
2023-01-09T22:02:42.749Z,9.82
2023-01-09T22:05:09.548Z,9.83
2023-01-09T22:07:36.126Z,9.81
2023-01-09T22:10:03.235Z,9.84
2023-01-09T22:12:29.976Z,9.83
2023-01-09T22:14:59.322Z,9.80
2023-01-09T22:17:25.946Z,9.82
2023-01-09T22:19:52.567Z,9.79
2023-01-09T22:22:19.148Z,9.82
2023-01-09T22:24:45.676Z,9.81
2023-01-09T22:27:12.164Z,9.82
2023-01-09T22:29:38.742Z,9.82
2023-01-09T22:32:05.390Z,9.81
2023-01-09T22:34:32.113Z,9.81
2023-01-09T22:36:58.640Z,9.77
2023-01-09T22:39:25.590Z,9.75
2023-01-09T22:41:54.485Z,9.78
2023-01-09T22:44:20.995Z,9.74
2023-01-09T22:46:47.700Z,9.72
2023-01-09T22:49:14.356Z,9.72
2023-01-09T22:51:41.015Z,9.69
2023-01-09T22:54:07.484Z,9.61
2023-01-09T22:56:34.046Z,9.54
2023-01-09T22:59:01.073Z,9.51
2023-01-09T23:01:27.681Z,9.50
2023-01-09T23:03:54.413Z,9.50
2023-01-09T23:06:21.802Z,9.48
2023-01-09T23:08:51.872Z,9.44
2023-01-09T23:11:39.722Z,9.41
2023-01-09T23:14:06.384Z,9.41
2023-01-09T23:16:32.953Z,9.40
2023-01-09T23:18:59.513Z,9.44
2023-01-09T23:21:26.164Z,9.45
2023-01-09T23:23:52.673Z,9.45
2023-01-09T23:26:19.080Z,9.47
2023-01-09T23:28:45.524Z,9.54
2023-01-09T23:31:11.995Z,9.58
2023-01-09T23:33:38.695Z,9.54
2023-01-09T23:36:05.264Z,9.59
2023-01-09T23:38:31.830Z,9.60
2023-01-09T23:40:58.435Z,9.54
2023-01-09T23:43:25.035Z,9.54
2023-01-09T23:45:52.042Z,9.62
2023-01-09T23:48:19.164Z,9.62
2023-01-09T23:50:50.288Z,9.63
2023-01-09T23:53:17.847Z,9.61
2023-01-09T23:55:44.677Z,9.61
2023-01-09T23:58:11.541Z,9.64
